Time;durP1;ratioP1;P1;durP2;ratioP2;P2;SDS_P1;SDS_P2;PMS_P1;PMS_P2;Temp;Humidity;BMP_temperature;BMP_pressure;BME280_temperature;BME280_humidity;BME280_pressure;Samples;Min_cycle;Max_cycle;Signal;HPM_P1;HPM_P2
2021/08/23 00:02:01;;;;;;;15.33;14.53;;;16.30;99.90;;;;;;4974702;28;20451;-74
2021/08/23 00:04:28;;;;;;;15.60;14.50;;;16.30;99.90;;;;;;4974725;28;20467;-74
2021/08/23 00:06:56;;;;;;;16.10;14.80;;;16.40;99.90;;;;;;4974629;28;20464;-75
2021/08/23 00:09:22;;;;;;;14.37;13.67;;;16.30;99.90;;;;;;4974786;28;20440;-74
2021/08/23 00:11:49;;;;;;;15.40;14.60;;;16.30;99.90;;;;;;4974730;28;20510;-74
2021/08/23 00:14:16;;;;;;;15.33;14.47;;;16.30;99.90;;;;;;4974652;28;20455;-74
2021/08/23 00:16:43;;;;;;;15.23;14.43;;;16.40;99.90;;;;;;4974578;28;20451;-74
2021/08/23 00:19:10;;;;;;;14.30;13.60;;;16.40;99.90;;;;;;4974516;28;20491;-75
2021/08/23 00:21:42;;;;;;;14.80;14.10;;;16.40;99.90;;;;;;4974427;28;20454;-74
2021/08/23 00:24:22;;;;;;;16.07;15.00;;;16.40;99.90;;;;;;4974219;28;20937;-74
2021/08/23 00:26:49;;;;;;;15.50;14.37;;;16.30;99.90;;;;;;4973846;28;20853;-73
2021/08/23 00:29:16;;;;;;;16.37;15.10;;;16.30;99.90;;;;;;4974122;28;21025;-73
2021/08/23 00:31:43;;;;;;;16.37;15.47;;;16.30;99.90;;;;;;4974430;28;20455;-73
2021/08/23 00:34:09;;;;;;;15.63;14.50;;;16.30;99.90;;;;;;4974410;28;20463;-74
2021/08/23 00:36:36;;;;;;;16.07;15.20;;;16.30;99.90;;;;;;4974505;28;20836;-73
2021/08/23 00:39:04;;;;;;;15.70;14.80;;;16.40;99.90;;;;;;4973882;28;20491;-74
2021/08/23 00:41:33;;;;;;;15.57;14.77;;;16.30;99.90;;;;;;4973992;28;20452;-74
2021/08/23 00:44:00;;;;;;;14.70;13.80;;;16.30;99.90;;;;;;4974160;28;20455;-73
2021/08/23 00:46:27;;;;;;;15.30;14.60;;;16.30;99.90;;;;;;4974267;28;20867;-74
2021/08/23 00:48:54;;;;;;;15.47;14.50;;;16.30;99.90;;;;;;4973951;28;20468;-73
2021/08/23 00:51:21;;;;;;;15.83;15.03;;;16.30;99.90;;;;;;4973969;28;20459;-73
2021/08/23 00:53:48;;;;;;;15.40;14.60;;;16.40;99.90;;;;;;4973728;28;20455;-74
2021/08/23 00:56:16;;;;;;;15.03;14.33;;;16.40;99.90;;;;;;4973690;28;20965;-73
2021/08/23 00:58:45;;;;;;;15.33;14.60;;;16.40;99.90;;;;;;4973928;28;20490;-73
2021/08/23 01:01:15;;;;;;;15.87;15.07;;;16.40;99.90;;;;;;4974028;28;20875;-74
2021/08/23 01:03:51;;;;;;;15.83;15.17;;;16.50;99.90;;;;;;4973863;28;20452;-73
2021/08/23 01:06:18;;;;;;;15.87;14.93;;;16.50;99.90;;;;;;4973533;28;20843;-73
2021/08/23 01:08:47;;;;;;;15.90;15.10;;;16.60;99.90;;;;;;4973540;28;20454;-73
2021/08/23 01:11:16;;;;;;;15.50;14.73;;;16.60;99.90;;;;;;4973425;28;20463;-73
2021/08/23 01:13:46;;;;;;;15.90;14.80;;;16.60;99.90;;;;;;4973696;28;20467;-73
2021/08/23 01:16:13;;;;;;;16.40;15.40;;;16.50;99.90;;;;;;4973346;28;20926;-73
2021/08/23 01:18:40;;;;;;;15.90;15.10;;;16.50;99.90;;;;;;4973468;28;20798;-73
2021/08/23 01:21:08;;;;;;;15.53;14.87;;;16.50;99.90;;;;;;4973212;28;20455;-74
2021/08/23 01:23:36;;;;;;;15.60;14.80;;;16.50;99.90;;;;;;4973300;28;20474;-73
2021/08/23 01:26:03;;;;;;;15.93;14.93;;;16.50;99.90;;;;;;4972978;28;20456;-73
2021/08/23 01:28:42;;;;;;;16.37;15.23;;;16.50;99.90;;;;;;4973233;28;20503;-72
2021/08/23 01:31:24;;;;;;;15.63;14.80;;;16.50;99.90;;;;;;4973574;28;20440;-72
2021/08/23 01:33:52;;;;;;;17.00;15.77;;;16.40;99.90;;;;;;4973368;28;20432;-74
2021/08/23 01:36:19;;;;;;;16.17;15.27;;;16.50;99.90;;;;;;4973191;28;20486;-73
2021/08/23 01:38:46;;;;;;;16.33;15.30;;;16.50;99.90;;;;;;4972973;28;20483;-72
2021/08/23 01:41:13;;;;;;;16.40;15.60;;;16.50;99.90;;;;;;4973089;28;20450;-72
2021/08/23 01:43:40;;;;;;;15.70;14.80;;;16.50;99.90;;;;;;4973484;28;20452;-72
2021/08/23 01:46:06;;;;;;;16.83;15.83;;;16.50;99.90;;;;;;4972863;28;20463;-72
2021/08/23 01:48:34;;;;;;;16.17;15.40;;;16.40;99.90;;;;;;4972675;28;20468;-72
2021/08/23 01:51:02;;;;;;;16.17;15.27;;;16.50;99.90;;;;;;4972398;28;20479;-72
2021/08/23 01:53:29;;;;;;;16.33;15.53;;;16.50;99.90;;;;;;4972749;28;20452;-73
2021/08/23 01:55:55;;;;;;;17.37;16.07;;;16.50;99.90;;;;;;4972824;28;20460;-72
2021/08/23 01:58:22;;;;;;;17.80;16.70;;;16.50;99.90;;;;;;4972715;28;20448;-73
2021/08/23 02:00:49;;;;;;;17.33;16.30;;;16.50;99.90;;;;;;4972503;28;20459;-72
2021/08/23 02:03:16;;;;;;;16.77;15.67;;;16.50;99.90;;;;;;4972622;28;20453;-73
2021/08/23 02:05:43;;;;;;;16.90;15.83;;;16.50;99.90;;;;;;4972799;28;20448;-73
2021/08/23 02:08:11;;;;;;;15.43;14.63;;;16.50;99.90;;;;;;4972648;28;20455;-73
2021/08/23 02:10:38;;;;;;;17.37;16.17;;;16.50;99.90;;;;;;4972633;28;20499;-72
2021/08/23 02:13:05;;;;;;;15.87;15.10;;;16.60;99.90;;;;;;4972331;28;20455;-72
2021/08/23 02:15:31;;;;;;;16.80;15.80;;;16.60;99.90;;;;;;4972123;28;20455;-72
2021/08/23 02:17:58;;;;;;;16.23;15.30;;;16.60;99.90;;;;;;4972324;28;20466;-72
2021/08/23 02:20:25;;;;;;;16.30;15.50;;;16.60;99.90;;;;;;4972452;28;20483;-71
2021/08/23 02:22:52;;;;;;;17.70;16.03;;;16.60;99.90;;;;;;4972183;28;20847;-73
2021/08/23 02:25:22;;;;;;;17.37;16.47;;;16.60;99.90;;;;;;4972140;28;21148;-73
2021/08/23 02:27:49;;;;;;;20.33;18.30;;;16.50;99.90;;;;;;4972166;28;20989;-73
2021/08/23 02:30:16;;;;;;;17.50;16.30;;;16.60;99.90;;;;;;4972076;28;20969;-73
2021/08/23 02:32:42;;;;;;;16.37;15.33;;;16.60;99.90;;;;;;4972315;28;20812;-73
2021/08/23 02:35:09;;;;;;;16.77;15.77;;;16.60;99.90;;;;;;4972239;28;20462;-73
2021/08/23 02:37:36;;;;;;;17.40;16.27;;;16.60;99.90;;;;;;4971876;28;20459;-73
2021/08/23 02:40:04;;;;;;;16.23;15.33;;;16.60;99.90;;;;;;4971892;28;20490;-73
2021/08/23 02:42:32;;;;;;;15.90;15.00;;;16.60;99.90;;;;;;4972141;28;20806;-73
2021/08/23 02:44:58;;;;;;;15.93;15.00;;;16.60;99.90;;;;;;4971928;28;20502;-72
2021/08/23 02:47:25;;;;;;;15.53;14.83;;;16.60;99.90;;;;;;4971280;28;20454;-72
2021/08/23 02:49:52;;;;;;;16.30;15.40;;;16.60;99.90;;;;;;4971725;28;20487;-72
2021/08/23 02:52:18;;;;;;;17.13;15.93;;;16.60;99.90;;;;;;4971965;28;20530;-72
2021/08/23 02:54:45;;;;;;;16.23;15.33;;;16.70;99.90;;;;;;4971858;28;20460;-72
2021/08/23 02:57:12;;;;;;;16.00;15.00;;;16.70;99.90;;;;;;4972110;28;20448;-72
2021/08/23 02:59:40;;;;;;;16.70;15.80;;;16.70;99.90;;;;;;4971701;28;20495;-72
2021/08/23 03:02:06;;;;;;;16.20;15.30;;;16.70;99.90;;;;;;4972109;28;20456;-72
2021/08/23 03:04:33;;;;;;;15.23;14.40;;;16.70;99.90;;;;;;4971675;28;20833;-71
2021/08/23 03:07:00;;;;;;;16.00;15.10;;;16.70;99.90;;;;;;4971819;28;20804;-72
2021/08/23 03:09:26;;;;;;;16.53;15.43;;;16.70;99.90;;;;;;4971559;28;20475;-73
2021/08/23 03:11:53;;;;;;;16.40;15.50;;;16.70;99.90;;;;;;4971702;28;20482;-74
2021/08/23 03:14:20;;;;;;;16.90;16.03;;;16.60;99.90;;;;;;4971646;28;20459;-74
2021/08/23 03:16:48;;;;;;;17.03;15.67;;;16.60;99.90;;;;;;4971396;28;21174;-72
2021/08/23 03:19:14;;;;;;;16.30;15.40;;;16.70;99.90;;;;;;4971405;28;20483;-72
2021/08/23 03:21:41;;;;;;;16.23;15.40;;;16.70;99.90;;;;;;4971751;28;20518;-72
2021/08/23 03:24:08;;;;;;;16.90;15.97;;;16.70;99.90;;;;;;4971638;28;20451;-72
2021/08/23 03:26:35;;;;;;;17.00;15.90;;;16.70;99.90;;;;;;4971608;28;20456;-72
2021/08/23 03:29:01;;;;;;;18.17;17.17;;;16.60;99.90;;;;;;4971442;28;20817;-71
2021/08/23 03:31:28;;;;;;;16.73;16.03;;;16.60;99.90;;;;;;4971671;28;20447;-72
2021/08/23 03:33:56;;;;;;;17.67;16.80;;;16.60;99.90;;;;;;4971779;28;20463;-73
2021/08/23 03:36:23;;;;;;;16.30;15.40;;;16.60;99.90;;;;;;4971631;28;20826;-72
2021/08/23 03:38:49;;;;;;;16.93;16.07;;;16.60;99.90;;;;;;4971071;28;20456;-72
2021/08/23 03:41:17;;;;;;;17.53;16.70;;;16.60;99.90;;;;;;4971329;28;20452;-72
2021/08/23 03:43:43;;;;;;;16.77;15.80;;;16.70;99.90;;;;;;4971484;28;20825;-72
2021/08/23 03:46:10;;;;;;;17.20;16.20;;;16.80;99.90;;;;;;4971298;28;20463;-73
2021/08/23 03:48:37;;;;;;;16.97;16.03;;;16.90;99.90;;;;;;4971520;28;20844;-72
2021/08/23 03:51:05;;;;;;;16.70;15.50;;;16.80;99.90;;;;;;4970973;28;20479;-72
2021/08/23 03:53:31;;;;;;;16.73;15.53;;;16.90;99.90;;;;;;4971206;28;20568;-73
2021/08/23 03:55:58;;;;;;;18.40;17.00;;;16.90;99.90;;;;;;4971044;28;20463;-73
2021/08/23 03:58:25;;;;;;;18.23;16.90;;;16.80;99.90;;;;;;4971491;28;20900;-73
2021/08/23 04:00:51;;;;;;;16.60;15.70;;;16.90;99.90;;;;;;4972665;28;20487;-72
2021/08/23 04:03:18;;;;;;;16.43;14.97;;;17.00;99.90;;;;;;4974233;28;20455;-73
2021/08/23 04:05:45;;;;;;;16.37;15.57;;;17.00;99.90;;;;;;4974577;28;20466;-72
2021/08/23 04:08:13;;;;;;;15.30;14.60;;;17.00;99.90;;;;;;4974849;28;20930;-72
2021/08/23 04:10:39;;;;;;;16.30;15.60;;;17.00;99.90;;;;;;4974622;28;20454;-73
2021/08/23 04:13:06;;;;;;;17.17;15.90;;;16.90;99.90;;;;;;4974645;28;20456;-73
2021/08/23 04:15:33;;;;;;;16.77;15.83;;;16.90;99.90;;;;;;4974505;28;20444;-72
2021/08/23 04:18:00;;;;;;;16.23;15.30;;;16.90;99.90;;;;;;4974408;28;20452;-72
2021/08/23 04:20:27;;;;;;;15.43;14.77;;;16.90;99.90;;;;;;4974446;28;20495;-72
2021/08/23 04:22:53;;;;;;;15.77;14.97;;;16.90;99.90;;;;;;4974581;28;20506;-72
2021/08/23 04:25:21;;;;;;;16.10;15.00;;;16.80;99.90;;;;;;4974375;28;20464;-72
2021/08/23 04:27:49;;;;;;;16.37;15.37;;;16.90;99.90;;;;;;4974157;28;20456;-72
2021/08/23 04:30:15;;;;;;;15.87;14.93;;;16.80;99.90;;;;;;4974294;28;20452;-72
2021/08/23 04:32:42;;;;;;;15.37;14.73;;;16.80;99.90;;;;;;4974035;28;20455;-72
2021/08/23 04:35:09;;;;;;;16.03;15.20;;;16.90;99.90;;;;;;4974362;28;20974;-72
2021/08/23 04:37:36;;;;;;;15.93;15.23;;;16.90;99.90;;;;;;4974032;28;20502;-72
2021/08/23 04:40:03;;;;;;;16.33;15.43;;;17.00;99.90;;;;;;4973889;28;20487;-73
2021/08/23 04:42:31;;;;;;;16.23;15.07;;;17.00;99.90;;;;;;4974038;28;20463;-72
2021/08/23 04:44:57;;;;;;;15.37;14.57;;;17.00;99.90;;;;;;4974011;28;20455;-72
2021/08/23 04:47:24;;;;;;;16.50;15.23;;;16.90;99.90;;;;;;4973929;28;20451;-72
2021/08/23 04:49:51;;;;;;;16.23;15.17;;;17.00;99.90;;;;;;4973748;28;20483;-72
2021/08/23 04:52:17;;;;;;;16.70;15.60;;;17.00;99.90;;;;;;4973736;28;21016;-73
2021/08/23 04:54:44;;;;;;;16.10;15.27;;;17.10;99.90;;;;;;4973762;28;20482;-73
2021/08/23 04:57:11;;;;;;;16.50;15.70;;;17.10;99.90;;;;;;4973867;28;20465;-72
2021/08/23 04:59:39;;;;;;;17.20;16.30;;;17.20;99.90;;;;;;4973799;28;20485;-71
2021/08/23 05:02:06;;;;;;;19.57;18.23;;;17.20;99.90;;;;;;4973977;28;20452;-72
2021/08/23 05:04:33;;;;;;;18.30;17.50;;;17.00;99.90;;;;;;4973686;28;20456;-72
2021/08/23 05:06:59;;;;;;;18.10;17.20;;;16.90;99.90;;;;;;4973402;28;20458;-72
2021/08/23 05:09:26;;;;;;;19.20;18.27;;;16.90;99.90;;;;;;4973486;28;20464;-72
2021/08/23 05:11:53;;;;;;;18.47;17.50;;;16.80;99.90;;;;;;4973320;28;20458;-72
2021/08/23 05:14:20;;;;;;;17.33;16.53;;;16.80;99.90;;;;;;4973462;28;20464;-73
2021/08/23 05:16:48;;;;;;;18.37;17.37;;;16.70;99.90;;;;;;4973225;28;20988;-73
2021/08/23 05:19:14;;;;;;;17.17;16.27;;;16.70;99.90;;;;;;4973489;28;20448;-72
2021/08/23 05:21:41;;;;;;;18.10;17.20;;;16.60;99.90;;;;;;4973654;28;20494;-72
2021/08/23 05:24:08;;;;;;;17.53;16.63;;;16.70;99.90;;;;;;4973330;28;20463;-72
2021/08/23 05:26:37;;;;;;;19.27;18.20;;;16.70;99.90;;;;;;4973038;28;20462;-72
2021/08/23 05:29:03;;;;;;;17.37;16.57;;;16.70;99.90;;;;;;4973130;28;20444;-72
2021/08/23 05:31:30;;;;;;;17.70;16.80;;;16.70;99.90;;;;;;4973311;28;20454;-72
2021/08/23 05:33:58;;;;;;;17.77;16.87;;;16.70;99.90;;;;;;4973204;28;20474;-73
2021/08/23 05:36:25;;;;;;;18.57;17.57;;;16.80;99.90;;;;;;4973440;28;20463;-73
2021/08/23 05:38:51;;;;;;;18.73;17.63;;;16.80;99.90;;;;;;4973129;28;20507;-73
2021/08/23 05:41:18;;;;;;;17.90;16.83;;;16.90;99.90;;;;;;4972604;28;20483;-72
2021/08/23 05:43:45;;;;;;;19.47;17.70;;;17.00;99.90;;;;;;4972794;28;20460;-72
2021/08/23 05:46:15;;;;;;;18.13;17.00;;;17.10;99.90;;;;;;4973077;28;20455;-74
2021/08/23 05:48:42;;;;;;;18.13;17.33;;;17.10;99.90;;;;;;4972978;28;20534;-73
2021/08/23 05:51:14;;;;;;;18.67;17.30;;;17.20;99.90;;;;;;4972618;28;20548;-73
2021/08/23 05:53:41;;;;;;;18.70;17.80;;;17.10;99.90;;;;;;4972590;28;20450;-72
2021/08/23 05:56:07;;;;;;;17.73;16.70;;;17.20;99.90;;;;;;4972689;28;20450;-72
2021/08/23 05:58:34;;;;;;;18.67;17.57;;;17.30;99.90;;;;;;4972576;28;20462;-72
2021/08/23 06:01:01;;;;;;;18.20;17.30;;;17.30;99.90;;;;;;4972433;28;20490;-71
2021/08/23 06:03:27;;;;;;;17.80;16.73;;;17.40;99.90;;;;;;4972608;28;20527;-73
2021/08/23 06:05:54;;;;;;;17.03;16.23;;;17.30;99.90;;;;;;4972390;28;20455;-73
2021/08/23 06:08:23;;;;;;;16.87;16.07;;;17.30;99.90;;;;;;4972663;28;20455;-73
2021/08/23 06:10:50;;;;;;;18.10;16.83;;;17.40;99.90;;;;;;4972353;28;20463;-73
2021/08/23 06:13:16;;;;;;;16.57;15.77;;;17.30;99.90;;;;;;4972391;28;20645;-74
2021/08/23 06:15:43;;;;;;;16.73;15.87;;;17.50;99.90;;;;;;4972613;28;20474;-74
2021/08/23 06:18:10;;;;;;;16.93;16.03;;;17.50;99.90;;;;;;4972446;28;20462;-74
2021/08/23 06:20:36;;;;;;;15.67;14.80;;;17.60;99.90;;;;;;4972107;28;20488;-74
2021/08/23 06:23:03;;;;;;;15.13;14.43;;;17.80;99.90;;;;;;4971541;28;20452;-74
2021/08/23 06:25:31;;;;;;;16.13;15.03;;;18.10;99.90;;;;;;4971789;28;20454;-73
2021/08/23 06:27:57;;;;;;;15.60;14.80;;;18.50;99.90;;;;;;4972240;28;20846;-74
2021/08/23 06:30:24;;;;;;;13.67;13.07;;;18.70;99.90;;;;;;4972508;28;20451;-75
2021/08/23 06:32:51;;;;;;;16.10;15.30;;;18.90;99.90;;;;;;4971774;28;20463;-74
2021/08/23 06:35:18;;;;;;;15.73;14.93;;;19.10;99.90;;;;;;4971632;28;20471;-74
2021/08/23 06:37:44;;;;;;;17.07;15.90;;;19.20;99.90;;;;;;4972052;28;20535;-74
2021/08/23 06:40:11;;;;;;;17.03;16.13;;;19.10;99.90;;;;;;4972067;28;20484;-74
2021/08/23 06:42:40;;;;;;;16.23;15.33;;;19.20;99.90;;;;;;4971956;28;20455;-74
2021/08/23 06:45:08;;;;;;;15.33;14.63;;;19.20;99.90;;;;;;4971806;28;20450;-74
2021/08/23 06:47:35;;;;;;;17.03;16.23;;;19.30;99.90;;;;;;4971786;28;20476;-74
2021/08/23 06:50:02;;;;;;;16.93;15.70;;;19.40;99.90;;;;;;4971638;28;20490;-74
2021/08/23 06:52:29;;;;;;;15.97;15.10;;;19.40;99.90;;;;;;4971866;28;20443;-74
2021/08/23 06:54:55;;;;;;;16.97;16.20;;;19.50;99.90;;;;;;4972112;28;20528;-72
2021/08/23 06:57:22;;;;;;;16.60;15.90;;;19.40;99.90;;;;;;4971465;28;20961;-71
2021/08/23 06:59:50;;;;;;;19.43;18.53;;;19.20;99.90;;;;;;4971949;28;20462;-72
2021/08/23 07:02:17;;;;;;;20.50;19.23;;;19.00;99.90;;;;;;4971831;28;20488;-74
2021/08/23 07:04:44;;;;;;;19.97;19.10;;;18.80;99.90;;;;;;4971737;28;20944;-74
2021/08/23 07:07:11;;;;;;;19.67;18.87;;;18.60;99.90;;;;;;4971478;28;20455;-74
2021/08/23 07:09:38;;;;;;;19.80;18.80;;;18.50;99.90;;;;;;4971666;28;20452;-77
2021/08/23 07:12:05;;;;;;;20.53;19.13;;;18.50;99.90;;;;;;4971799;28;20473;-79
2021/08/23 07:14:32;;;;;;;19.87;18.57;;;18.40;99.90;;;;;;4972616;28;20485;-79
2021/08/23 07:17:00;;;;;;;19.30;18.50;;;18.50;99.90;;;;;;4990565;28;20446;-78
2021/08/23 07:19:26;;;;;;;19.23;18.33;;;18.60;99.90;;;;;;4991352;28;20443;-78
2021/08/23 07:21:53;;;;;;;19.43;18.33;;;18.50;99.90;;;;;;4991181;28;20486;-78
2021/08/23 07:24:20;;;;;;;19.60;18.50;;;18.60;99.90;;;;;;4991341;28;20542;-77
2021/08/23 07:26:46;;;;;;;19.10;18.03;;;18.50;99.90;;;;;;4991055;28;20454;-79
2021/08/23 07:29:13;;;;;;;19.30;18.40;;;18.50;99.90;;;;;;4990711;28;20939;-77
2021/08/23 07:31:40;;;;;;;18.77;17.87;;;18.50;99.90;;;;;;4990961;28;20439;-85
2021/08/23 07:34:08;;;;;;;18.93;18.10;;;18.50;99.90;;;;;;4992087;28;20465;-86
2021/08/23 07:36:35;;;;;;;20.33;19.03;;;18.70;99.90;;;;;;4994973;28;20454;-77
2021/08/23 07:39:02;;;;;;;18.83;17.97;;;18.80;99.90;;;;;;4994325;28;20953;-82
2021/08/23 07:41:29;;;;;;;18.97;18.17;;;18.90;99.90;;;;;;4994724;28;20485;-81
2021/08/23 07:43:55;;;;;;;17.63;16.73;;;19.00;99.90;;;;;;4994880;28;20469;-81
2021/08/23 07:46:22;;;;;;;17.30;16.23;;;19.00;99.90;;;;;;4994595;28;20477;-80
2021/08/23 07:48:49;;;;;;;15.17;14.47;;;19.20;99.90;;;;;;4993842;28;20475;-81
2021/08/23 07:51:17;;;;;;;16.10;15.00;;;19.50;99.90;;;;;;4994573;28;20454;-83
2021/08/23 07:53:43;;;;;;;15.60;14.67;;;20.00;99.90;;;;;;4994470;28;20462;-82
2021/08/23 07:56:10;;;;;;;15.20;14.50;;;20.60;99.90;;;;;;4994738;28;20461;-82
2021/08/23 07:58:37;;;;;;;15.63;14.83;;;21.10;99.90;;;;;;4994492;28;20517;-85
2021/08/23 08:01:04;;;;;;;15.20;14.50;;;21.50;99.90;;;;;;4994086;28;20532;-83
2021/08/23 08:03:31;;;;;;;14.83;14.10;;;21.70;99.90;;;;;;4994247;28;20949;-83
2021/08/23 08:05:57;;;;;;;14.50;13.90;;;21.90;99.90;;;;;;4994616;28;20458;-82
2021/08/23 08:08:29;;;;;;;15.30;14.60;;;22.30;99.90;;;;;;4994485;28;20991;-80
2021/08/23 08:10:57;;;;;;;15.20;14.60;;;22.40;99.90;;;;;;4994357;28;20458;-81
2021/08/23 08:13:24;;;;;;;15.67;14.77;;;22.30;99.90;;;;;;4994722;28;20969;-79
2021/08/23 08:15:50;;;;;;;14.90;14.20;;;22.50;99.90;;;;;;4994415;28;20935;-78
2021/08/23 08:18:20;;;;;;;15.40;14.70;;;22.40;99.90;;;;;;4994439;28;20945;-79
2021/08/23 08:20:47;;;;;;;15.10;14.37;;;22.30;99.90;;;;;;4994307;28;20490;-79
2021/08/23 08:23:14;;;;;;;15.67;14.90;;;22.40;99.90;;;;;;4994183;28;20458;-78
2021/08/23 08:25:42;;;;;;;14.57;13.87;;;22.30;99.90;;;;;;4994424;28;20836;-77
2021/08/23 08:28:08;;;;;;;15.20;14.20;;;22.20;99.90;;;;;;4994406;28;20439;-77
2021/08/23 08:30:35;;;;;;;14.60;14.00;;;22.10;99.90;;;;;;4994244;28;20459;-76
2021/08/23 08:33:02;;;;;;;14.70;13.87;;;22.20;99.90;;;;;;4994015;28;20457;-77
2021/08/23 08:35:28;;;;;;;15.10;14.20;;;22.30;99.90;;;;;;4994167;28;20454;-76
2021/08/23 08:37:55;;;;;;;15.70;14.17;;;22.40;99.90;;;;;;4994015;28;20458;-76
2021/08/23 08:40:23;;;;;;;15.23;14.17;;;22.40;99.90;;;;;;4992142;28;20957;-76
2021/08/23 08:42:51;;;;;;;15.50;14.60;;;22.80;99.90;;;;;;4993813;28;20482;-76
2021/08/23 08:45:19;;;;;;;15.53;14.70;;;23.30;99.90;;;;;;4993186;28;20450;-76
2021/08/23 08:47:46;;;;;;;14.83;14.23;;;23.70;99.90;;;;;;4993871;28;20467;-75
2021/08/23 08:50:15;;;;;;;14.67;13.87;;;24.10;99.90;;;;;;4993742;28;21028;-75
2021/08/23 08:52:45;;;;;;;15.40;14.60;;;24.20;99.90;;;;;;4993737;28;20443;-75
2021/08/23 08:55:12;;;;;;;16.20;15.10;;;24.10;99.90;;;;;;4993777;28;20455;-74
2021/08/23 08:57:39;;;;;;;14.93;14.23;;;24.00;99.90;;;;;;4993914;28;20450;-75
2021/08/23 09:00:09;;;;;;;15.03;14.30;;;24.20;99.90;;;;;;4993787;28;20797;-75
2021/08/23 09:02:36;;;;;;;15.97;15.07;;;24.30;99.90;;;;;;4993500;28;20497;-75
2021/08/23 09:05:04;;;;;;;16.20;15.20;;;24.10;99.90;;;;;;4993385;28;21143;-75
2021/08/23 09:07:37;;;;;;;16.60;15.60;;;24.20;99.90;;;;;;4993142;28;20462;-75
2021/08/23 09:10:17;;;;;;;16.00;15.13;;;24.10;99.90;;;;;;4993504;28;20509;-75
2021/08/23 09:12:44;;;;;;;15.63;14.70;;;24.40;99.90;;;;;;4993439;28;20447;-74
2021/08/23 09:15:13;;;;;;;16.30;15.40;;;24.40;99.90;;;;;;4993503;28;20535;-75
2021/08/23 09:17:39;;;;;;;17.37;16.30;;;24.70;99.90;;;;;;4992610;28;20458;-75
2021/08/23 09:20:08;;;;;;;16.20;15.03;;;25.20;99.90;;;;;;4992902;28;20455;-76
2021/08/23 09:22:34;;;;;;;16.03;14.90;;;25.60;99.90;;;;;;4992650;28;20498;-75
2021/08/23 09:25:08;;;;;;;15.40;14.60;;;25.80;99.90;;;;;;4992651;28;20458;-75
2021/08/23 09:27:36;;;;;;;15.50;14.70;;;26.10;99.90;;;;;;4992790;28;20482;-74
2021/08/23 09:30:05;;;;;;;15.73;14.83;;;26.00;99.90;;;;;;4992677;28;20442;-74
2021/08/23 09:32:35;;;;;;;14.80;14.10;;;26.60;99.40;;;;;;4992507;28;21003;-75
2021/08/23 09:35:03;;;;;;;15.37;14.27;;;26.60;99.40;;;;;;4992734;28;20810;-74
2021/08/23 09:37:32;;;;;;;15.17;14.47;;;26.30;99.70;;;;;;4992590;28;20833;-74
2021/08/23 09:40:09;;;;;;;16.23;15.23;;;26.00;99.90;;;;;;4992431;28;20458;-74
2021/08/23 09:42:35;;;;;;;14.20;13.50;;;25.90;99.80;;;;;;4992230;28;21007;-74
2021/08/23 09:45:02;;;;;;;14.47;13.80;;;25.60;99.60;;;;;;4992439;28;20446;-74
2021/08/23 09:47:30;;;;;;;16.07;15.27;;;24.80;99.90;;;;;;4992275;28;20450;-74
2021/08/23 09:49:58;;;;;;;15.50;14.27;;;24.60;99.90;;;;;;4992182;28;21017;-74
2021/08/23 09:52:34;;;;;;;16.13;15.33;;;24.40;99.90;;;;;;4992390;28;20933;-75
2021/08/23 09:55:02;;;;;;;15.77;14.60;;;23.80;99.90;;;;;;4991894;28;20458;-74
2021/08/23 09:57:29;;;;;;;15.73;15.13;;;23.10;99.90;;;;;;4991269;28;20554;-74
2021/08/23 09:59:57;;;;;;;15.33;14.60;;;22.20;99.90;;;;;;4992252;28;20454;-73
2021/08/23 10:02:27;;;;;;;15.50;14.73;;;21.70;99.90;;;;;;4992031;28;20490;-75
2021/08/23 10:04:55;;;;;;;14.97;14.27;;;21.90;99.90;;;;;;4991699;28;20478;-73
2021/08/23 10:07:26;;;;;;;14.70;13.90;;;22.00;99.90;;;;;;4991980;28;20521;-74
2021/08/23 10:09:54;;;;;;;15.73;14.77;;;21.90;99.90;;;;;;4977996;28;20499;-74
2021/08/23 10:12:21;;;;;;;15.57;14.67;;;22.00;99.90;;;;;;4972410;28;20844;-74
2021/08/23 10:14:48;;;;;;;15.13;14.27;;;22.10;99.90;;;;;;4972563;28;20455;-75
2021/08/23 10:17:15;;;;;;;14.30;13.70;;;22.30;99.90;;;;;;4983474;28;20849;-74
2021/08/23 10:19:42;;;;;;;15.80;14.80;;;22.50;99.90;;;;;;4991664;28;20953;-74
2021/08/23 10:22:12;;;;;;;16.27;15.27;;;22.50;99.90;;;;;;4991311;28;20486;-74
2021/08/23 10:24:42;;;;;;;15.43;14.70;;;22.10;99.90;;;;;;4991533;28;20451;-72
2021/08/23 10:27:09;;;;;;;15.67;14.90;;;22.00;99.90;;;;;;4991817;28;20462;-73
2021/08/23 10:29:39;;;;;;;15.80;14.90;;;22.10;99.90;;;;;;4991495;28;20596;-73
2021/08/23 10:32:09;;;;;;;16.30;15.50;;;22.20;99.90;;;;;;4991646;28;20478;-74
2021/08/23 10:34:37;;;;;;;14.57;13.97;;;22.30;99.90;;;;;;4991520;28;20805;-73
2021/08/23 10:37:15;;;;;;;14.87;14.10;;;22.60;99.90;;;;;;4991394;28;20461;-74
2021/08/23 10:39:43;;;;;;;15.57;14.87;;;22.80;99.90;;;;;;4991545;28;20469;-73
2021/08/23 10:42:12;;;;;;;14.70;14.00;;;23.10;99.90;;;;;;4991538;28;20501;-74
2021/08/23 10:44:39;;;;;;;15.30;14.50;;;23.40;99.90;;;;;;4991489;28;20458;-73
2021/08/23 10:47:07;;;;;;;15.10;14.40;;;23.60;99.90;;;;;;4991135;28;20450;-73
2021/08/23 10:49:43;;;;;;;14.70;14.10;;;23.50;99.90;;;;;;4991101;28;20491;-73
2021/08/23 10:52:09;;;;;;;15.00;14.20;;;23.40;99.90;;;;;;4991532;28;20446;-73
2021/08/23 10:54:38;;;;;;;14.77;14.07;;;23.70;99.90;;;;;;4991184;28;21201;-73
2021/08/23 10:57:08;;;;;;;14.40;13.80;;;23.70;99.90;;;;;;4991200;28;20451;-73
2021/08/23 10:59:39;;;;;;;14.03;13.43;;;23.90;99.90;;;;;;4991031;28;20478;-72
2021/08/23 11:02:07;;;;;;;14.47;13.77;;;23.60;99.90;;;;;;4991193;28;20533;-73
2021/08/23 11:04:38;;;;;;;14.30;13.60;;;23.70;99.90;;;;;;4991289;28;20450;-73
2021/08/23 11:07:05;;;;;;;14.00;13.30;;;23.30;99.90;;;;;;4991288;28;20451;-73
2021/08/23 11:09:39;;;;;;;14.20;13.50;;;23.10;99.90;;;;;;4990811;28;20462;-73
2021/08/23 11:12:16;;;;;;;13.37;12.77;;;22.70;99.90;;;;;;4971560;28;20453;-74
2021/08/23 11:14:49;;;;;;;14.40;13.70;;;23.30;99.90;;;;;;4979482;28;20455;-74
2021/08/23 11:17:27;;;;;;;14.53;13.73;;;24.30;99.90;;;;;;4990780;28;20976;-74
2021/08/23 11:19:53;;;;;;;15.23;14.53;;;24.70;99.90;;;;;;4991222;28;20443;-74
2021/08/23 11:22:20;;;;;;;13.77;13.17;;;24.60;99.90;;;;;;4990157;28;20497;-74
2021/08/23 11:24:47;;;;;;;14.60;13.90;;;24.70;99.90;;;;;;4990699;28;20482;-74
2021/08/23 11:27:16;;;;;;;14.70;13.90;;;25.10;99.90;;;;;;4990505;28;20877;-73
2021/08/23 11:29:53;;;;;;;14.70;14.00;;;25.30;99.90;;;;;;4990839;28;20447;-73
2021/08/23 11:32:25;;;;;;;14.60;13.90;;;25.00;99.90;;;;;;4991141;28;20451;-73
2021/08/23 11:34:52;;;;;;;14.10;13.50;;;24.70;99.90;;;;;;4991128;28;21007;-73
2021/08/23 11:37:23;;;;;;;14.57;13.67;;;24.50;99.90;;;;;;4991199;28;20819;-74
2021/08/23 11:39:50;;;;;;;14.60;13.87;;;24.80;99.90;;;;;;4991042;28;20455;-73
2021/08/23 11:42:25;;;;;;;13.27;12.77;;;25.00;99.90;;;;;;4988773;28;20478;-73
2021/08/23 11:44:53;;;;;;;15.30;14.23;;;25.20;99.90;;;;;;4991046;28;20481;-73
2021/08/23 11:47:29;;;;;;;15.03;14.07;;;25.20;99.90;;;;;;4990943;28;20827;-73
2021/08/23 11:49:56;;;;;;;14.20;13.63;;;24.90;99.90;;;;;;4991222;28;20514;-73
2021/08/23 11:52:23;;;;;;;15.07;14.37;;;25.00;99.90;;;;;;4991047;28;20905;-72
2021/08/23 11:54:51;;;;;;;14.83;14.23;;;25.30;99.90;;;;;;4990810;28;20829;-72
2021/08/23 11:57:20;;;;;;;13.93;13.37;;;25.70;99.60;;;;;;4991038;28;20458;-72
2021/08/23 11:59:56;;;;;;;13.20;12.70;;;25.30;99.20;;;;;;4990818;28;20458;-72
2021/08/23 12:02:28;;;;;;;14.07;13.47;;;25.20;99.40;;;;;;4990710;28;20490;-72
2021/08/23 12:04:55;;;;;;;13.43;12.83;;;25.30;98.60;;;;;;4990764;28;20486;-72
2021/08/23 12:07:21;;;;;;;14.00;13.30;;;25.30;99.00;;;;;;4990630;28;20462;-72
2021/08/23 12:09:59;;;;;;;14.00;13.50;;;25.60;98.50;;;;;;4990287;28;20517;-72
2021/08/23 12:12:27;;;;;;;13.90;13.30;;;25.40;98.90;;;;;;4988960;28;20442;-72
2021/08/23 12:15:00;;;;;;;14.20;13.50;;;25.90;98.00;;;;;;4990138;28;20458;-73
2021/08/23 12:17:31;;;;;;;14.43;13.80;;;27.10;96.40;;;;;;4990572;28;20468;-73
2021/08/23 12:20:05;;;;;;;14.27;13.73;;;26.70;96.30;;;;;;4990180;28;20458;-73
2021/08/23 12:22:32;;;;;;;14.00;13.10;;;25.60;98.00;;;;;;4993010;28;21007;-72
2021/08/23 12:25:01;;;;;;;14.10;13.60;;;25.30;98.90;;;;;;4993609;28;20462;-73
2021/08/23 12:27:29;;;;;;;14.30;13.70;;;26.10;98.00;;;;;;4993639;28;20462;-72
2021/08/23 12:29:56;;;;;;;14.30;13.60;;;27.60;95.60;;;;;;4993696;28;20446;-73
2021/08/23 12:32:22;;;;;;;14.87;14.33;;;27.60;95.20;;;;;;4993361;28;20945;-73